Latest Coastal Weather Observations for King Island Airport

IDV60701

Issued at 8:02 pm EDT Saturday 10 December 2022 (issued every 10 minutes, with the page automatically refreshed every 10 minutes)

About coastal observations | Map of coastal stations | Coastal observations for VIC | Marine services | Other Formats
Station Details ID: 098017 Name: KING ISLAND AIRPORT Lat: -39.88 Lon: 143.89 Height: 35.42 m
Data from the previous 72 hours. | See also: Recent months at King Island Airport
Date/Time
EDT
Wind Sea
Height
m
Swell Vis
km
Cloud Weather Temp
°C
Press
MSL
hPa
Rain since
9am
mm
Dir  Spd
kts
Gust
kts
Height
m
Period
s
Dir
10/08:00pm E 11 16 - - - - 10 Partly cloudy - 14.6 1012.2 0.0
10/07:30pm E 12 17 - - - - 10 Partly cloudy - 14.9 1012.3 0.0
10/07:00pm ENE 11 16 - - - - 10 Cloudy - 16.1 1012.7 0.0
10/06:30pm E 11 16 - - - - 10 Partly cloudy - 16.2 1012.5 0.0
10/06:00pm E 13 18 - - - - 10 Mostly clear - 16.8 1012.3 0.0
10/05:30pm ENE 12 18 - - - - 10 - - 18.0 1012.3 0.0
10/05:00pm ENE 14 19 - - - - 10 - - 17.7 1012.7 0.0
10/04:30pm E 14 18 - - - - 10 - - 18.2 1012.8 0.0
10/04:00pm ENE 12 17 - - - - 10 - - 18.9 1013.3 0.0
10/03:30pm ENE 12 18 - - - - 10 - - 18.9 1013.9 0.0
10/03:00pm ENE 12 16 - - - - 10 - Rain 19.0 1014.5 0.0
10/02:30pm NE 13 18 - - - - 10 - - 19.2 1014.5 0.0
10/02:00pm NE 15 21 - - - - 10 - - 19.0 1014.3 0.0
10/01:30pm NE 13 18 - - - - 10 - - 19.1 1014.9 0.0
10/01:00pm NE 13 19 - - - - 10 - - 19.1 1015.4 0.0
10/12:30pm NNE 13 18 - - - - 10 - - 19.1 1015.6 0.0
10/12:00pm NE 11 16 - - - - 10 Mostly cloudy Showers 18.7 1015.3 0.0
10/11:30am NNE 7 11 - - - - 10 - - 18.7 1016.4 0.0
10/11:00am N 9 11 - - - - 10 - - 18.0 1016.6 0.0
10/10:30am ENE 7 10 - - - - 10 - - 17.5 1016.7 0.0
10/10:00am ENE 8 11 - - - - 10 - - 15.9 1016.9 0.0
10/09:30am NE 7 9 - - - - 10 - - 15.7 1017.2 0.0
10/09:00am ENE 8 11 - - - - 10 Mostly cloudy - 15.3 1017.3 0.0
10/08:30am ENE 8 10 - - - - 10 - - 13.7 1017.3 0.0
10/08:00am E 6 8 - - - - 10 - - 13.0 1017.1 0.0
10/07:30am ESE 4 6 - - - - 10 - - 11.0 1016.9 0.0
10/07:00am ESE 4 5 - - - - 10 - - 8.7 1017.0 0.0
10/06:30am SE 5 6 - - - - 10 - - 7.0 1016.9 0.0
10/06:00am CALM 0 2 - - - - 10 Mostly cloudy - 5.8 1017.0 0.0
10/05:34am ESE 3 5 - - - - 10 - - 4.8 1016.7 0.0
10/05:30am ESE 4 5 - - - - 10 - - 4.1 1016.7 0.0
10/05:14am SE 2 4 - - - - 4 - - 4.4 1016.7 0.0
10/05:06am CALM 0 0 - - - - 10 - - 4.8 1016.6 0.0
10/05:00am CALM 0 0 - - - - 10 - - 4.9 1016.6 0.0
10/04:46am CALM 0 0 - - - - 3 - - 5.0 1016.8 0.0
10/04:30am SE 3 4 - - - - 10 - - 6.6 1017.0 0.0
10/04:00am ESE 3 5 - - - - 10 - - 5.2 1016.9 0.0
10/03:30am CALM 0 0 - - - - 10 - - 5.5 1017.2 0.0
10/03:00am CALM 0 0 - - - - 10 - - 5.2 1017.3 0.0
10/02:30am CALM 0 0 - - - - 10 - - 6.0 1017.7 0.0
10/02:00am CALM 0 0 - - - - 10 - - 6.0 1017.9 0.0
10/01:30am ESE 4 4 - - - - 10 - - 6.6 1018.0 0.0
10/01:00am SSE 6 8 - - - - 10 - - 8.8 1018.3 0.0
10/12:30am SSE 5 6 - - - - 10 - - 8.6 1018.5 0.0
10/12:00am SE 3 5 - - - - 10 - - 7.6 1018.6 0.0
 
Date/Time
EDT
Wind Sea
Height
m
Swell Vis
km
Cloud Weather Temp
°C
Press
MSL
hPa
Rain since
9am
mm
Dir  Spd
kts
Gust
kts
Height
m
Period
s
Dir
09/11:30pm CALM 0 0 - - - - 10 - - 8.0 1018.8 0.0
09/11:00pm SSE 4 6 - - - - 10 - - 9.0 1018.9 0.0
09/10:30pm SSE 4 6 - - - - 10 - - 9.0 1018.9 0.0
09/10:00pm SE 5 7 - - - - 10 - - 9.3 1019.0 0.0
09/09:30pm SSE 5 6 - - - - 10 - - 10.1 1019.0 0.0
09/09:00pm SSE 6 8 - - - - 10 - - 10.7 1018.8 0.0
09/08:30pm SSE 7 9 - - - - 10 - - 11.7 1018.9 0.0
09/08:00pm SSE 8 11 - - - - 10 - - 12.9 1018.8 0.0
09/07:30pm SSE 9 12 - - - - 10 - - 13.6 1018.5 0.0
09/07:00pm SSE 9 13 - - - - 10 - - 14.3 1018.4 0.0
09/06:30pm S 9 12 - - - - 10 - - 15.1 1018.2 0.0
09/06:00pm S 10 13 - - - - 10 - - 15.1 1018.1 0.0
09/05:30pm SSE 10 13 - - - - 10 - - 14.5 1018.2 0.0
09/05:00pm SE 10 14 - - - - 10 - - 15.2 1018.3 0.0
09/04:30pm SSW 13 18 - - - - 10 - - 15.7 1018.4 0.0
09/04:00pm SSW 15 19 - - - - 10 - - 15.4 1018.5 0.0
09/03:30pm SSW 15 19 - - - - 10 - - 15.0 1018.8 0.0
09/03:00pm SSW 14 20 - - - - 10 Cloudy - 15.8 1019.0 0.0
09/02:30pm SSW 14 18 - - - - 10 Partly cloudy - 16.0 1019.3 0.0
09/02:00pm SW 16 21 - - - - 10 Cloudy - 14.9 1019.5 0.0
09/01:30pm SSW 16 20 - - - - 10 Partly cloudy - 14.3 1019.7 0.0
09/01:00pm SSW 15 19 - - - - 10 Partly cloudy - 14.7 1019.5 0.0
09/12:30pm S 11 17 - - - - 10 Cloudy - 14.5 1019.4 0.0
09/12:00pm S 10 14 - - - - 10 Cloudy Showers 14.9 1019.5 0.0
09/11:30am SE 10 14 - - - - 10 Partly cloudy - 16.0 1019.4 0.0
09/11:00am S 10 14 - - - - 10 Partly cloudy - 16.1 1019.3 0.0
09/10:30am S 10 15 - - - - 10 Partly cloudy - 15.0 1019.3 0.0
09/10:00am SSE 10 15 - - - - 10 Partly cloudy - 15.0 1019.4 0.0
09/09:30am S 11 17 - - - - 10 Partly cloudy - 12.7 1019.6 0.0
09/09:00am SSW 10 16 - - - - 10 Cloudy - 13.0 1019.5 0.6
09/08:30am SSE 8 11 - - - - 10 Partly cloudy - 12.6 1019.4 0.6
09/08:00am S 7 10 - - - - 10 - - 12.8 1019.0 0.6
09/07:30am SSW 6 9 - - - - 10 - - 11.5 1018.5 0.6
09/07:00am SSW 4 5 - - - - 10 - - 9.7 1018.3 0.6
09/06:30am S 5 6 - - - - 10 Partly cloudy - 8.1 1018.0 0.6
09/06:00am S 5 7 - - - - 10 - - 6.3 1017.7 0.6
09/05:30am S 5 6 - - - - 10 Partly cloudy - 7.4 1017.4 0.6
09/05:00am SSE 5 6 - - - - 10 Partly cloudy - 7.8 1017.2 0.6
09/04:30am SE 6 9 - - - - 10 - - 7.5 1017.3 0.6
09/04:00am SSE 6 8 - - - - 10 - - 8.0 1017.4 0.6
09/03:30am SSE 7 9 - - - - 10 Partly cloudy - 8.9 1017.6 0.6
09/03:00am SSE 7 10 - - - - 10 Cloudy - 10.1 1017.6 0.6
09/02:30am S 10 16 - - - - 10 Partly cloudy - 10.5 1017.8 0.6
09/02:00am SSW 13 18 - - - - 10 Partly cloudy - 10.6 1017.9 0.6
09/01:30am S 8 13 - - - - 10 Partly cloudy - 10.0 1018.2 0.6
09/01:00am SSW 12 18 - - - - 10 Partly cloudy - 10.4 1018.1 0.6
09/12:30am SSW 9 12 - - - - 10 Partly cloudy - 9.9 1018.1 0.6
09/12:00am S 11 17 - - - - 10 Cloudy - 10.4 1017.9 0.6
 
Date/Time
EDT
Wind Sea
Height
m
Swell Vis
km
Cloud Weather Temp
°C
Press
MSL
hPa
Rain since
9am
mm
Dir  Spd
kts
Gust
kts
Height
m
Period
s
Dir
08/11:30pm SSW 12 17 - - - - 10 Partly cloudy - 10.1 1018.1 0.6
08/11:00pm SSW 11 18 - - - - 10 Partly cloudy - 10.6 1018.1 0.6
08/10:30pm SSW 11 16 - - - - 10 Partly cloudy - 10.3 1018.0 0.6
08/10:00pm SSW 11 16 - - - - 10 Partly cloudy - 10.0 1017.7 0.6
08/09:30pm SSW 12 19 - - - - 10 Partly cloudy - 9.9 1017.4 0.6
08/09:00pm SSW 11 15 - - - - 10 Partly cloudy - 9.8 1017.2 0.6
08/08:30pm SSW 13 19 - - - - 10 Partly cloudy - 10.4 1017.2 0.6
08/08:00pm SSW 15 21 - - - - 10 Partly cloudy - 10.8 1017.3 0.6
08/07:30pm SSW 14 20 - - - - 10 Partly cloudy - 11.4 1017.0 0.6
08/07:00pm SSW 15 22 - - - - 10 Partly cloudy - 11.5 1016.5 0.6
08/06:30pm SSW 11 15 - - - - 10 Partly cloudy - 11.1 1016.1 0.6
08/06:17pm SSW 17 27 - - - - 10 Partly cloudy - 10.2 1016.2 0.6
08/06:00pm SSW 16 24 - - - - 10 Cloudy - 12.2 1015.9 0.6
08/05:30pm SW 18 27 - - - - 10 Partly cloudy - 13.1 1015.8 0.6
08/05:00pm SW 18 24 - - - - 10 Partly cloudy - 12.7 1015.8 0.6
08/04:30pm SSW 19 28 - - - - 10 Partly cloudy - 14.0 1015.7 0.6
08/04:00pm SSW 20 27 - - - - 10 Partly cloudy - 13.8 1015.5 0.6
08/03:30pm SW 19 25 - - - - 10 Partly cloudy - 13.5 1015.4 0.6
08/03:00pm SSW 19 30 - - - - 10 Mostly cloudy Recent precip. 13.3 1015.5 0.4
08/02:30pm SSW 19 27 - - - - 10 Partly cloudy - 13.4 1015.4 0.4
08/02:00pm SW 18 23 - - - - 10 Partly cloudy - 13.7 1015.1 0.4
08/01:41pm SW 20 30 - - - - 10 Partly cloudy - 13.1 1015.2 0.4
08/01:30pm SW 19 28 - - - - 10 Partly cloudy - 13.4 1015.0 0.4
08/01:00pm SSW 16 24 - - - - 10 Partly cloudy - 12.4 1015.2 0.4
08/12:30pm SSW 17 24 - - - - 10 Partly cloudy - 12.4 1014.7 0.0
08/12:00pm SSW 17 26 - - - - 10 Mostly cloudy - 12.9 1014.7 0.0
08/11:30am SSW 21 26 - - - - 10 Partly cloudy - 13.2 1014.6 0.0
08/11:01am SSW 21 31 - - - - 10 Partly cloudy - 13.5 1014.1 0.0
08/11:00am SSW 22 31 - - - - 10 Partly cloudy - 13.4 1014.1 0.0
08/10:58am SSW 21 31 - - - - 10 Partly cloudy - 13.3 1014.1 0.0
08/10:30am SSW 18 27 - - - - 10 Partly cloudy - 11.0 1014.1 0.0
08/10:10am SSW 18 29 - - - - 10 Partly cloudy - 11.1 1014.0 0.0
08/10:00am SW 15 21 - - - - 10 Partly cloudy - 11.0 1013.8 0.0
08/09:38am SW 18 29 - - - - 10 Partly cloudy - 11.8 1013.6 0.0
08/09:30am SSW 19 26 - - - - 10 Partly cloudy - 12.5 1013.6 0.0
08/09:09am SSW 19 31 - - - - 10 Partly cloudy - 10.3 1013.4 0.0
08/09:00am SSW 18 26 - - - - 10 Mostly clear Rain 12.9 1013.1 4.4
08/08:30am SSW 15 23 - - - - 10 Partly cloudy - 10.9 1012.5 4.4
08/08:00am SSW 17 27 - - - - 10 Partly cloudy - 9.4 1012.1 4.4
08/07:53am SSW 18 28 - - - - 10 Partly cloudy - 9.1 1012.0 4.4
08/07:30am SSW 17 26 - - - - 10 Partly cloudy - 10.0 1011.5 4.2
08/07:22am SSW 16 26 - - - - 10 Partly cloudy - 10.9 1011.3 4.0
08/07:00am SSW 19 25 - - - - 10 Partly cloudy - 10.5 1011.0 4.0
08/06:30am SW 17 24 - - - - 10 Partly cloudy - 10.0 1010.7 4.0
08/06:00am SSW 15 21 - - - - 10 Partly cloudy - 9.5 1010.4 4.0
08/05:41am SW 15 26 - - - - 10 Partly cloudy - 9.4 1010.1 4.0
08/05:30am SSW 12 17 - - - - 10 Partly cloudy - 8.1 1010.1 4.0
08/05:20am SSW 17 27 - - - - 10 Partly cloudy - 8.1 1010.0 4.0
08/05:00am SSW 17 25 - - - - 10 Partly cloudy - 9.1 1009.7 4.0
08/04:30am SW 18 25 - - - - 10 Partly cloudy - 9.6 1009.4 4.0
08/04:00am SW 19 26 - - - - 10 Partly cloudy - 9.5 1009.3 4.0
08/03:30am WSW 15 21 - - - - 10 Partly cloudy - 9.3 1009.3 4.0
08/03:00am SSW 19 27 - - - - 10 Cloudy Recent precip. 9.0 1009.4 4.0
08/02:47am SW 20 34 - - - - 10 Partly cloudy - 9.1 1009.3 4.0
08/02:30am WSW 14 19 - - - - 10 Partly cloudy - 8.7 1009.2 4.0
08/02:05am SW 21 33 - - - - 10 Partly cloudy - 9.5 1009.3 4.0
08/02:00am SW 19 26 - - - - 10 Partly cloudy - 9.6 1009.2 4.0
08/01:40am SW 18 28 - - - - 10 Partly cloudy - 9.1 1009.2 4.0
08/01:30am SW 19 27 - - - - 10 Partly cloudy - 9.3 1009.3 4.0
08/01:00am SW 19 26 - - - - 10 Partly cloudy - 9.6 1009.2 4.0
08/12:40am SW 18 29 - - - - 10 Partly cloudy - 9.7 1009.1 4.0
08/12:30am SW 18 26 - - - - 10 Partly cloudy - 9.4 1009.2 4.0
08/12:00am SW 24 36 - - - - 10 Mostly cloudy Showers 8.7 1009.4 4.0
 
Date/Time
EDT
Wind Sea
Height
m
Swell Vis
km
Cloud Weather Temp
°C
Press
MSL
hPa
Rain since
9am
mm
Dir  Spd
kts
Gust
kts
Height
m
Period
s
Dir
07/11:30pm SW 21 35 - - - - 10 Partly cloudy - 8.7 1008.7 3.8
07/11:26pm SW 23 35 - - - - 8 Partly cloudy - 8.1 1008.7 3.8
07/11:24pm SW 23 35 - - - - 8 Partly cloudy - 8.4 1008.7 3.8
07/11:00pm WSW 18 29 - - - - 10 Partly cloudy - 9.9 1008.4 3.2
07/10:42pm SW 21 31 - - - - 10 Partly cloudy - 10.6 1008.2 3.2
07/10:30pm SW 20 29 - - - - 10 Partly cloudy - 10.1 1008.2 3.2
07/10:04pm SW 20 30 - - - - 10 Partly cloudy - 10.1 1007.9 3.2
07/10:00pm SW 22 30 - - - - 10 Partly cloudy - 10.2 1007.8 3.2
07/09:41pm SW 22 32 - - - - 10 Partly cloudy - 9.7 1007.5 3.2
07/09:30pm SW 22 31 - - - - 10 Partly cloudy - 9.8 1007.2 3.2
07/09:00pm SW 18 30 - - - - 10 Cloudy Rain 10.2 1006.6 2.6
07/08:30pm SW 21 36 - - - - 9 Partly cloudy - 9.8 1006.1 2.4
07/08:03pm SW 22 32 - - - - 10 Partly cloudy - 11.6 1005.8 2.0

Other formats

Comma delimited format used in spreadsheet applications
http://www.bom.gov.au/fwo/IDV60701/IDV60701.94850.axf

JavaScript Object Notation format (JSON) in row-major order
http://www.bom.gov.au/fwo/IDV60701/IDV60701.94850.json

Data quality

Most of these data are generated automatically and are frequently updated. Quality checks on data are not normally performed. It is possible for incorrect values to appear. Refer to information at About Latest Weather Observations and please check the disclaimer before using these data.